Weather at Norrie Brook Airport

Public forecast

Using degrees Fahrenheit for public forecast. Weather courtesy of forecast.io.

Closest aviation weather report (METAR) to Norrie Brook Airport

Closest report is Wausau Downtown Airport, 17.1 nm (31.7 km) W. Retrieved 2021/06/13 09:54 UTC (16 minutes ago):

KAUW 130954Z AUTO 31004KT 10SM CLR 16/12 A3001 RMK AO2 SLP159 T01560122

Closest aviation forecast (TAF) to Norrie Brook Airport

Closest forecast is Wausau Downtown Airport, 17.1 nm (31.7 km) W. Retrieved 2021/06/13 06:22 UTC (4 hours ago):

TAF KAUW 130520Z 1306/1406 30003KT P6SM SKC FM131600 29007G15KT P6SM SCT070 FM132200 25007KT P6SM SCT090 FM140100 02008KT P6SM SCT035 BKN070 PROB30 1401/1403 3SM TSRA OVC035CB FM140300 03005KT P6SM SCT070